Time;durP1;ratioP1;P1;durP2;ratioP2;P2;SDS_P1;SDS_P2;PMS_P1;PMS_P2;Temp;Humidity;BMP_temperature;BMP_pressure;BME280_temperature;BME280_humidity;BME280_pressure;Samples;Min_cycle;Max_cycle;Signal;HPM_P1;HPM_P2
2022/01/13 00:00:09;;;;;;;31.65;16.80;;;;;;;1.12;50.76;96496.75;4991853;28;20202;-60
2022/01/13 00:02:36;;;;;;;34.28;17.48;;;;;;;1.12;50.60;96496.75;4991002;28;20265;-60
2022/01/13 00:05:05;;;;;;;34.90;18.27;;;;;;;0.89;51.33;96489.59;4991464;28;20261;-62
2022/01/13 00:07:34;;;;;;;34.20;18.35;;;;;;;1.18;50.95;96501.28;4990408;28;20587;-60
2022/01/13 00:10:01;;;;;;;32.38;17.30;;;;;;;1.03;51.19;96504.50;4991833;28;20226;-61
2022/01/13 00:12:33;;;;;;;47.90;22.77;;;;;;;1.07;51.41;96509.34;4991353;28;20210;-61
2022/01/13 00:17:44;;;;;;;34.85;19.15;;;;;;;1.07;50.93;96520.47;4991625;28;20209;-60
2022/01/13 00:25:52;;;;;;;30.33;17.20;;;;;;;0.21;52.63;96526.69;4991835;28;20194;-60
2022/01/13 00:28:21;;;;;;;32.88;17.65;;;;;;;0.59;52.54;96526.25;4990720;28;20202;-60
2022/01/13 00:30:54;;;;;;;32.85;18.17;;;;;;;0.54;52.42;96533.66;4991503;28;20264;-61
2022/01/13 00:33:25;;;;;;;33.65;18.13;;;;;;;0.96;51.57;96529.31;4990778;28;20205;-61
2022/01/13 00:35:54;;;;;;;32.78;17.80;;;;;;;0.70;51.38;96538.88;4991193;28;20230;-60
2022/01/13 00:38:21;;;;;;;32.13;18.05;;;;;;;0.65;51.49;96541.13;4990880;28;20214;-61
2022/01/13 00:40:48;;;;;;;34.95;18.83;;;;;;;0.64;51.62;96544.66;4991307;28;20194;-61
2022/01/13 00:43:15;;;;;;;37.22;20.73;;;;;;;0.37;51.90;96544.03;4990717;28;20296;-61
2022/01/13 00:45:42;;;;;;;35.53;18.30;;;;;;;-0.04;53.02;96559.22;4991485;28;20214;-61
2022/01/13 00:48:09;;;;;;;33.70;17.33;;;;;;;-0.66;54.19;96566.22;4990784;28;20278;-62
2022/01/13 00:50:36;;;;;;;34.60;16.48;;;;;;;-1.29;55.56;96571.31;4991157;28;20207;-61
2022/01/13 00:53:03;;;;;;;34.97;17.38;;;;;;;-0.98;55.43;96553.00;4990644;28;20202;-61
2022/01/13 00:55:47;;;;;;;35.20;17.92;;;;;;;-0.97;55.18;96562.34;4990864;28;20701;-60
2022/01/13 00:58:14;;;;;;;34.25;16.92;;;;;;;-1.43;56.46;96564.06;4990643;28;20210;-57
2022/01/13 01:00:42;;;;;;;35.80;19.42;;;;;;;-0.93;55.34;96572.22;4990874;28;20202;-61
2022/01/13 01:03:09;;;;;;;36.78;18.58;;;;;;;-1.26;55.77;96576.16;4990191;28;20203;-56
2022/01/13 01:05:37;;;;;;;41.45;18.15;;;;;;;-0.80;54.79;96559.03;4991031;28;20190;-59
2022/01/13 01:08:06;;;;;;;36.05;17.00;;;;;;;-0.84;54.43;96552.53;4990575;28;20202;-56
2022/01/13 01:10:33;;;;;;;39.95;19.15;;;;;;;-0.35;53.63;96564.94;4990647;28;20210;-56
2022/01/13 01:13:09;;;;;;;41.03;19.85;;;;;;;-0.32;53.93;96580.91;4990697;28;20208;-57
2022/01/13 01:15:38;;;;;;;45.13;21.80;;;;;;;-0.41;53.56;96570.66;4990398;28;20240;-57
2022/01/13 01:18:16;;;;;;;39.65;22.10;;;;;;;-0.47;53.86;96576.38;4989661;28;20206;-58
2022/01/13 01:21:35;;;;;;;39.90;19.48;;;;;;;-0.29;53.46;96569.47;4990770;28;20198;-59
2022/01/13 01:31:34;;;;;;;40.42;20.00;;;;;;;-0.73;54.20;96580.66;4989861;28;20213;-56
2022/01/13 01:36:29;;;;;;;39.67;20.58;;;;;;;-0.44;53.50;96573.53;4990554;28;20290;-57
2022/01/13 01:38:57;;;;;;;42.13;19.40;;;;;;;-0.78;53.79;96562.22;4989668;28;20214;-55
2022/01/13 01:41:24;;;;;;;38.38;19.75;;;;;;;-0.42;53.68;96574.19;4989833;28;20700;-58
2022/01/13 01:43:52;;;;;;;38.30;20.10;;;;;;;-0.49;54.05;96588.59;4989574;28;20206;-57
2022/01/13 01:46:19;;;;;;;45.10;21.65;;;;;;;-0.89;53.71;96583.03;4990347;28;20670;-57
2022/01/13 01:48:46;;;;;;;38.20;18.67;;;;;;;-1.81;56.18;96587.31;4989697;28;20682;-57
2022/01/13 01:51:13;;;;;;;39.25;18.80;;;;;;;-1.60;56.34;96580.22;4989749;28;20190;-57
2022/01/13 01:53:40;;;;;;;36.25;17.80;;;;;;;-1.80;56.09;96583.78;4989504;28;20195;-59
2022/01/13 01:56:08;;;;;;;41.47;20.23;;;;;;;-1.78;56.70;96579.31;4989809;28;20277;-58
2022/01/13 01:58:36;;;;;;;40.60;19.23;;;;;;;-1.59;56.22;96581.84;4989416;28;20245;-57
2022/01/13 02:01:03;;;;;;;42.08;20.63;;;;;;;-1.25;55.21;96566.69;4990166;28;20669;-56
2022/01/13 02:03:30;;;;;;;38.53;18.83;;;;;;;-1.56;55.74;96568.72;4989582;28;20210;-58
2022/01/13 02:05:57;;;;;;;37.90;17.05;;;;;;;-1.62;55.84;96566.69;4990197;28;20211;-58
2022/01/13 02:08:24;;;;;;;37.03;18.83;;;;;;;-0.87;54.59;96557.94;4989880;28;20202;-57
2022/01/13 02:10:51;;;;;;;37.75;18.42;;;;;;;-1.44;55.10;96554.72;4992695;28;20182;-58
2022/01/13 02:13:22;;;;;;;34.80;17.38;;;;;;;-1.43;55.32;96571.78;4989719;28;20190;-57
2022/01/13 02:16:02;;;;;;;31.42;14.13;;;;;;;-1.26;54.86;96563.31;4989428;28;20321;-56
2022/01/13 02:18:31;;;;;;;50.25;22.85;;;;;;;-1.35;54.89;96555.66;4989469;28;20198;-57
2022/01/13 02:21:00;;;;;;;40.75;19.15;;;;;;;-1.02;54.05;96571.31;4989901;28;20202;-59
2022/01/13 02:23:32;;;;;;;40.00;19.40;;;;;;;-0.86;54.16;96560.41;4989079;28;20202;-57
2022/01/13 02:25:59;;;;;;;41.03;20.52;;;;;;;-0.65;53.25;96563.50;4990283;28;20332;-55
2022/01/13 02:28:28;;;;;;;38.13;20.23;;;;;;;-0.61;53.20;96564.03;4988233;28;20692;-58
2022/01/13 02:30:56;;;;;;;40.75;19.65;;;;;;;-0.77;53.30;96569.00;4991021;28;20186;-57
2022/01/13 02:33:23;;;;;;;40.63;19.27;;;;;;;-0.35;52.58;96562.34;4993259;28;20242;-57
2022/01/13 02:35:50;;;;;;;39.78;19.10;;;;;;;-0.27;51.48;96572.72;4993629;28;20300;-57
2022/01/13 02:38:16;;;;;;;43.63;19.65;;;;;;;-0.34;51.87;96561.38;4993165;28;20229;-56
2022/01/13 02:40:43;;;;;;;40.85;19.15;;;;;;;-0.43;52.05;96572.56;4993395;28;20301;-56
2022/01/13 02:43:10;;;;;;;40.40;19.50;;;;;;;-0.12;51.71;96581.53;4992808;28;20222;-57
2022/01/13 02:45:51;;;;;;;43.33;20.63;;;;;;;-0.25;51.85;96571.63;4993296;28;20199;-54
2022/01/13 02:50:54;;;;;;;40.03;19.48;;;;;;;-0.63;52.77;96581.38;4994478;28;20198;-57
2022/01/13 02:53:21;;;;;;;38.22;18.88;;;;;;;-0.53;52.11;96577.00;4993076;28;20199;-58
2022/01/13 02:56:01;;;;;;;35.70;18.00;;;;;;;-0.58;52.04;96574.03;4993579;28;20298;-56
2022/01/13 02:58:29;;;;;;;36.72;19.20;;;;;;;-0.68;52.12;96568.97;4992683;28;20204;-59
2022/01/13 03:00:56;;;;;;;40.60;19.58;;;;;;;-0.72;52.18;96566.81;4993545;28;20210;-61
2022/01/13 03:03:24;;;;;;;29.50;13.48;;;;;;;-1.29;53.16;96568.75;4993828;28;20234;-57
2022/01/13 03:05:50;;;;;;;37.78;17.80;;;;;;;-1.59;53.71;96560.47;4994425;28;20224;-56
2022/01/13 03:08:17;;;;;;;38.60;18.35;;;;;;;-2.13;55.52;96561.13;4992921;28;20198;-57
2022/01/13 03:10:44;;;;;;;37.63;17.55;;;;;;;-2.02;55.29;96558.41;4993431;28;20202;-56
2022/01/13 03:13:11;;;;;;;35.53;16.63;;;;;;;-2.19;55.41;96556.53;4992468;28;20194;-55
2022/01/13 03:15:38;;;;;;;38.08;16.70;;;;;;;-2.53;55.68;96563.00;4993911;28;20230;-57
2022/01/13 03:18:05;;;;;;;34.72;17.52;;;;;;;-2.26;55.92;96570.84;4993689;28;20225;-55
2022/01/13 03:20:32;;;;;;;34.70;16.77;;;;;;;-2.38;56.00;96567.63;4992772;28;20203;-56
2022/01/13 03:22:59;;;;;;;33.65;16.25;;;;;;;-2.79;56.72;96561.94;4991944;28;20891;-56
2022/01/13 03:25:26;;;;;;;36.47;17.63;;;;;;;-2.01;55.48;96564.34;4993049;28;20207;-57
2022/01/13 03:28:04;;;;;;;37.83;18.15;;;;;;;-1.79;54.59;96570.00;4992285;28;20571;-59
2022/01/13 03:30:32;;;;;;;36.83;17.15;;;;;;;-1.60;53.76;96567.34;4992584;28;20280;-59
2022/01/13 03:33:00;;;;;;;32.97;15.55;;;;;;;-1.69;54.17;96570.78;4992164;28;20202;-55
2022/01/13 03:35:27;;;;;;;35.40;17.98;;;;;;;-1.84;53.99;96567.00;4992468;28;20206;-57
2022/01/13 03:37:54;;;;;;;34.20;16.95;;;;;;;-1.56;53.69;96576.41;4991814;28;20255;-56
2022/01/13 03:40:21;;;;;;;32.97;17.23;;;;;;;-1.95;54.05;96571.50;4994898;28;20194;-56
2022/01/13 03:42:48;;;;;;;37.33;17.60;;;;;;;-1.54;53.08;96574.53;4996509;28;20190;-58
2022/01/13 03:45:15;;;;;;;33.20;17.58;;;;;;;-2.06;54.06;96587.88;4993506;28;20222;-56
2022/01/13 03:47:42;;;;;;;39.78;18.95;;;;;;;-1.93;53.95;96582.47;4992953;28;20305;-58
2022/01/13 03:50:09;;;;;;;106.82;40.20;;;;;;;-1.56;53.24;96586.69;4992680;28;20280;-56
2022/01/13 03:53:02;;;;;;;35.50;18.38;;;;;;;-1.55;52.90;96577.25;4992213;28;20213;-57
2022/01/13 03:55:38;;;;;;;36.47;17.73;;;;;;;-1.27;52.48;96571.97;4990777;28;20199;-56
2022/01/13 03:58:17;;;;;;;36.38;16.38;;;;;;;-1.31;52.14;96580.94;4991467;28;20237;-56
2022/01/13 04:01:12;;;;;;;33.38;16.27;;;;;;;-1.75;53.15;96586.72;4991889;28;20696;-57
2022/01/13 04:03:39;;;;;;;33.83;15.35;;;;;;;-2.21;53.17;96578.97;4991582;28;20619;-58
2022/01/13 04:06:39;;;;;;;33.40;15.48;;;;;;;-1.99;53.47;96583.00;4991944;28;20206;-57
2022/01/13 04:09:10;;;;;;;30.75;14.77;;;;;;;-2.41;54.55;96596.13;4991767;28;20202;-57
2022/01/13 04:11:36;;;;;;;35.17;17.73;;;;;;;-1.92;53.47;96599.50;4991742;28;20203;-55
2022/01/13 04:14:05;;;;;;;33.80;16.23;;;;;;;-1.97;52.97;96592.19;4990680;28;20202;-54
2022/01/13 04:16:36;;;;;;;35.80;16.70;;;;;;;-2.01;53.57;96603.69;5006466;28;20249;-57
2022/01/13 04:19:06;;;;;;;32.13;15.07;;;;;;;-1.87;52.93;96613.53;4991140;28;20194;-57
2022/01/13 04:21:36;;;;;;;34.75;17.27;;;;;;;-1.74;52.68;96614.06;4991744;28;20199;-57
2022/01/13 04:24:05;;;;;;;30.90;14.93;;;;;;;-1.92;52.66;96620.84;4991058;28;20195;-58
2022/01/13 04:26:34;;;;;;;31.80;16.92;;;;;;;-1.56;52.32;96621.88;4991788;28;21000;-58
2022/01/13 04:30:00;;;;;;;34.13;14.82;;;;;;;-1.58;51.92;96627.16;4991461;28;20214;-55
2022/01/13 04:31:51;;;;;;;33.83;15.32;;;;;;;-1.61;51.75;96627.44;4993833;28;20621;-61
2022/01/13 04:34:19;;;;;;;36.10;16.67;;;;;;;-1.53;51.60;96622.41;4990566;28;20609;-57
2022/01/13 04:36:46;;;;;;;37.97;15.63;;;;;;;-1.39;51.17;96629.69;4991756;28;20226;-57
2022/01/13 04:39:14;;;;;;;36.75;17.25;;;;;;;-1.29;51.27;96642.50;4991495;28;20206;-58
2022/01/13 04:41:44;;;;;;;41.40;18.77;;;;;;;-1.68;51.46;96618.63;4992107;28;20264;-58
2022/01/13 04:44:14;;;;;;;34.13;16.50;;;;;;;-1.34;51.30;96621.53;4990572;28;20643;-57
2022/01/13 04:46:41;;;;;;;42.72;20.23;;;;;;;-2.06;52.56;96623.81;4991037;28;20217;-56
2022/01/13 04:49:08;;;;;;;40.40;18.75;;;;;;;-1.63;51.91;96619.06;4990506;28;20273;-56
2022/01/13 04:51:37;;;;;;;28.30;13.50;;;;;;;-2.17;52.66;96611.94;4991508;28;20203;-57
2022/01/13 04:54:05;;;;;;;33.75;15.73;;;;;;;-1.50;51.21;96617.00;4989477;28;20206;-57
2022/01/13 04:59:00;;;;;;;21.42;10.18;;;;;;;-1.86;51.10;96604.88;4990446;28;20214;-58
2022/01/13 05:01:26;;;;;;;31.35;14.75;;;;;;;-1.34;50.71;96612.06;4997907;28;20762;-59
2022/01/13 05:03:54;;;;;;;32.78;15.55;;;;;;;-1.28;50.37;96606.34;5008564;28;20205;-56
2022/01/13 05:06:20;;;;;;;20.65;10.32;;;;;;;-1.73;50.85;96625.94;5006582;28;20650;-56
2022/01/13 05:08:49;;;;;;;27.35;10.38;;;;;;;-2.42;52.25;96606.53;5006295;28;20218;-59
2022/01/13 05:11:17;;;;;;;23.48;10.45;;;;;;;-2.32;52.26;96633.03;5007323;28;20523;-58
2022/01/13 05:13:45;;;;;;;36.60;15.25;;;;;;;-1.68;50.75;96634.06;5010170;28;20259;-58
2022/01/13 05:16:27;;;;;;;29.38;14.23;;;;;;;-1.82;51.32;96637.06;5009988;28;20592;-55
2022/01/13 05:21:44;;;;;;;24.40;11.90;;;;;;;-1.54;50.39;96641.34;5010796;28;20205;-57
2022/01/13 05:24:12;;;;;;;21.45;10.07;;;;;;;-2.27;51.38;96641.13;4997078;28;20686;-57
2022/01/13 05:26:39;;;;;;;29.95;12.90;;;;;;;-2.11;51.95;96647.34;4992515;28;20198;-59
2022/01/13 05:29:05;;;;;;;27.35;11.25;;;;;;;-2.44;52.10;96650.28;4993014;28;20198;-58
2022/01/13 05:31:32;;;;;;;29.70;11.70;;;;;;;-2.27;51.69;96643.69;4993426;28;20634;-57
2022/01/13 05:33:59;;;;;;;27.27;12.15;;;;;;;-1.69;50.60;96640.16;4991795;28;20183;-58
2022/01/13 05:36:26;;;;;;;27.02;13.63;;;;;;;-3.00;52.87;96650.94;4992344;28;20249;-58
2022/01/13 05:38:54;;;;;;;24.10;9.75;;;;;;;-2.72;52.71;96656.16;4992955;28;20207;-58
2022/01/13 05:41:22;;;;;;;24.60;12.68;;;;;;;-2.19;51.36;96654.91;4993230;28;20756;-58
2022/01/13 05:43:48;;;;;;;23.30;11.65;;;;;;;-2.98;52.29;96649.06;4991452;28;20199;-55
2022/01/13 05:46:15;;;;;;;30.50;13.23;;;;;;;-2.92;52.07;96663.97;4992356;28;20214;-60
2022/01/13 05:48:42;;;;;;;28.33;13.20;;;;;;;-2.82;52.31;96659.66;4992296;28;20206;-56
2022/01/13 05:51:09;;;;;;;51.60;27.20;;;;;;;-2.34;54.64;96665.72;4990547;28;20214;-60
2022/01/13 05:53:36;;;;;;;201.75;60.53;;;;;;;-2.12;54.08;96670.59;4990146;28;20618;-61
2022/01/13 05:56:03;;;;;;;30.23;14.07;;;;;;;-2.62;52.67;96663.91;4991286;28;20225;-58
2022/01/13 05:58:32;;;;;;;26.75;11.95;;;;;;;-2.96;51.96;96667.72;4990601;28;20229;-57
2022/01/13 06:00:59;;;;;;;28.95;12.48;;;;;;;-2.79;52.37;96667.09;4991746;28;20789;-57
2022/01/13 06:03:26;;;;;;;26.10;12.70;;;;;;;-2.89;52.25;96668.81;4990254;28;20206;-56
2022/01/13 06:05:53;;;;;;;26.30;11.80;;;;;;;-2.62;51.65;96681.84;4989883;28;20655;-54
2022/01/13 06:08:19;;;;;;;28.25;12.18;;;;;;;-2.62;51.65;96682.69;4988410;28;20670;-56
2022/01/13 06:10:46;;;;;;;26.05;13.13;;;;;;;-3.10;51.74;96677.38;4990536;28;20595;-55
2022/01/13 06:13:14;;;;;;;27.02;12.80;;;;;;;-2.82;51.85;96680.19;4989676;28;20692;-55
2022/01/13 06:15:41;;;;;;;28.98;12.85;;;;;;;-3.36;52.48;96686.41;4989412;28;20655;-53
2022/01/13 06:18:16;;;;;;;38.13;18.50;;;;;;;-2.97;56.62;96678.94;4989398;28;20686;-58
2022/01/13 06:20:43;;;;;;;41.88;19.38;;;;;;;-3.10;54.13;96692.75;4990146;28;20194;-62
2022/01/13 06:23:15;;;;;;;28.67;14.38;;;;;;;-3.24;53.45;96703.34;4988885;28;20253;-56
2022/01/13 06:25:42;;;;;;;52.55;20.08;;;;;;;-2.98;52.49;96700.38;4989431;28;20210;-57
2022/01/13 06:28:09;;;;;;;26.67;12.65;;;;;;;-3.10;52.70;96700.44;5002488;28;20197;-56
2022/01/13 06:30:40;;;;;;;28.23;12.48;;;;;;;-3.08;52.48;96702.88;5008567;28;20213;-58
2022/01/13 06:33:07;;;;;;;25.45;11.82;;;;;;;-3.07;51.86;96707.09;5009035;28;20217;-59
2022/01/13 06:35:36;;;;;;;30.13;14.10;;;;;;;-2.55;51.35;96708.63;5009277;28;20217;-52
2022/01/13 06:38:03;;;;;;;27.63;13.02;;;;;;;-3.16;51.79;96712.97;5009115;28;20332;-53
2022/01/13 06:40:30;;;;;;;28.80;11.65;;;;;;;-3.61;52.94;96712.41;5009664;28;20193;-51
2022/01/13 06:42:57;;;;;;;25.70;10.90;;;;;;;-3.95;53.33;96718.63;5008612;28;20852;-56
2022/01/13 06:45:24;;;;;;;22.88;11.13;;;;;;;-3.70;52.33;96692.66;5009095;28;20209;-51
2022/01/13 06:47:51;;;;;;;27.58;12.13;;;;;;;-3.56;52.87;96723.09;5009397;28;20202;-57
2022/01/13 06:50:18;;;;;;;22.77;11.32;;;;;;;-3.51;52.25;96736.38;5009138;28;20586;-55
2022/01/13 06:52:47;;;;;;;30.75;12.82;;;;;;;-3.79;52.03;96690.84;5009559;28;20201;-55
2022/01/13 06:55:15;;;;;;;24.63;12.00;;;;;;;-3.20;51.90;96732.94;5009546;28;20198;-55
2022/01/13 06:57:42;;;;;;;136.65;37.45;;;;;;;-3.39;52.08;96737.94;5008336;28;20218;-57
2022/01/13 07:00:10;;;;;;;28.58;13.65;;;;;;;-3.71;53.04;96742.28;5008618;28;20213;-58
2022/01/13 07:02:36;;;;;;;29.55;13.40;;;;;;;-3.76;53.59;96748.72;5008897;28;20202;-56
2022/01/13 07:05:04;;;;;;;24.35;10.65;;;;;;;-4.08;54.05;96747.88;5008765;28;20206;-57
2022/01/13 07:07:35;;;;;;;22.40;7.95;;;;;;;-4.59;54.68;96738.22;5008857;28;20190;-54
2022/01/13 07:10:07;;;;;;;19.10;8.15;;;;;;;-3.94;54.04;96761.22;5008863;28;20323;-53
2022/01/13 07:12:34;;;;;;;27.98;12.63;;;;;;;-3.72;52.97;96765.47;5008641;28;20239;-56
2022/01/13 07:15:00;;;;;;;28.58;12.60;;;;;;;-3.82;52.74;96765.38;5008254;28;20236;-53
2022/01/13 07:17:27;;;;;;;18.67;8.75;;;;;;;-3.88;52.58;96758.19;5010475;28;20293;-56
2022/01/13 07:19:54;;;;;;;25.35;11.65;;;;;;;-3.78;53.20;96766.78;5012001;28;20619;-55
2022/01/13 07:22:21;;;;;;;26.75;12.90;;;;;;;-3.50;52.11;96768.72;5012190;28;20198;-54
2022/01/13 07:24:48;;;;;;;24.90;11.93;;;;;;;-3.12;51.70;96745.91;5011698;28;20592;-52
2022/01/13 07:27:15;;;;;;;23.77;11.88;;;;;;;-3.42;51.26;96748.44;5012771;28;20197;-57
2022/01/13 07:29:45;;;;;;;28.35;13.27;;;;;;;-3.28;50.50;96760.94;5012345;28;20561;-53
2022/01/13 07:32:13;;;;;;;101.03;32.30;;;;;;;-2.85;50.51;96754.84;5012249;28;20236;-54
2022/01/13 07:34:39;;;;;;;27.58;12.52;;;;;;;-2.68;49.41;96764.50;5011481;28;20186;-57
2022/01/13 07:37:07;;;;;;;31.38;12.15;;;;;;;-2.84;49.49;96764.97;5011741;28;20219;-58
2022/01/13 07:39:38;;;;;;;28.23;10.43;;;;;;;-3.28;50.07;96750.69;5011673;28;20210;-57
2022/01/13 07:42:05;;;;;;;18.98;9.60;;;;;;;-3.16;50.19;96772.72;5011889;28;20186;-57
2022/01/13 07:44:34;;;;;;;26.17;12.48;;;;;;;-3.00;49.47;96785.13;5011285;28;20213;-57
2022/01/13 07:47:01;;;;;;;27.95;9.40;;;;;;;-3.26;50.15;96783.88;4992668;28;20594;-56
2022/01/13 07:49:29;;;;;;;16.73;8.10;;;;;;;-3.37;50.05;96796.75;4992204;28;20194;-55
2022/01/13 07:51:56;;;;;;;24.20;11.55;;;;;;;-3.50;50.52;96801.22;4992726;28;20194;-58
2022/01/13 07:54:25;;;;;;;25.45;10.98;;;;;;;-3.30;50.10;96811.50;4991914;28;20600;-57
2022/01/13 07:56:57;;;;;;;19.92;9.88;;;;;;;-2.96;49.45;96811.34;4992350;28;20206;-57
2022/01/13 07:59:27;;;;;;;15.98;7.30;;;;;;;-3.14;49.99;96814.44;4991721;28;20341;-58
2022/01/13 08:01:55;;;;;;;24.08;10.65;;;;;;;-3.15;49.70;96817.97;4992620;28;20298;-55
2022/01/13 08:04:22;;;;;;;81.88;33.30;;;;;;;-3.00;49.42;96826.16;4991273;28;20260;-58
2022/01/13 08:06:50;;;;;;;40.75;17.83;;;;;;;-2.93;49.83;96821.31;4991928;28;20288;-59
2022/01/13 08:09:21;;;;;;;27.33;13.35;;;;;;;-2.84;49.03;96815.44;4991914;28;20202;-58
2022/01/13 08:11:48;;;;;;;21.75;9.18;;;;;;;-3.20;48.98;96840.59;4992780;28;20282;-58
2022/01/13 08:14:15;;;;;;;26.48;13.07;;;;;;;-3.07;49.14;96843.78;4991068;28;20704;-60
2022/01/13 08:16:44;;;;;;;30.13;12.75;;;;;;;-3.07;49.05;96836.09;4992601;28;20190;-57
2022/01/13 08:21:57;;;;;;;23.60;10.82;;;;;;;-3.38;49.76;96842.09;4991819;28;20301;-60
2022/01/13 08:24:24;;;;;;;23.98;11.35;;;;;;;-2.99;48.53;96845.72;4990855;28;20206;-57
2022/01/13 08:26:51;;;;;;;26.27;11.73;;;;;;;-2.55;48.10;96850.59;4992127;28;20197;-59
2022/01/13 08:29:17;;;;;;;24.75;10.07;;;;;;;-2.91;48.29;96845.09;4990174;28;20206;-61
2022/01/13 08:31:45;;;;;;;26.50;12.45;;;;;;;-2.84;48.24;96856.47;4991193;28;20199;-63
2022/01/13 08:34:14;;;;;;;25.15;10.55;;;;;;;-2.96;48.51;96857.50;4990570;28;20694;-58
2022/01/13 08:36:41;;;;;;;21.50;8.05;;;;;;;-3.02;47.89;96855.41;4991497;28;20641;-57
2022/01/13 08:39:08;;;;;;;25.90;11.65;;;;;;;-2.57;47.04;96839.63;4992305;28;20261;-58
2022/01/13 08:41:40;;;;;;;60.55;22.70;;;;;;;-2.39;46.91;96852.72;4991438;28;20242;-58
2022/01/13 08:44:08;;;;;;;18.63;9.05;;;;;;;-3.10;47.57;96856.84;4990895;28;20269;-58
2022/01/13 08:46:35;;;;;;;26.98;12.02;;;;;;;-2.70;47.94;96854.41;4991293;28;20605;-61
2022/01/13 08:49:04;;;;;;;27.33;12.05;;;;;;;-2.58;47.40;96857.72;4990756;28;20204;-59
2022/01/13 08:51:31;;;;;;;25.60;10.95;;;;;;;-2.79;47.52;96852.59;4991455;28;20195;-58
2022/01/13 08:53:58;;;;;;;20.95;10.57;;;;;;;-2.81;47.26;96841.66;4990438;28;20198;-60
2022/01/13 08:56:25;;;;;;;16.40;8.60;;;;;;;-3.41;48.02;96857.69;4991145;28;20585;-57
2022/01/13 08:58:52;;;;;;;15.68;8.82;;;;;;;-3.15;48.02;96848.72;4990345;28;20229;-59
2022/01/13 09:01:19;;;;;;;16.83;6.03;;;;;;;-3.24;47.89;96848.66;4990772;28;20202;-56
2022/01/13 09:03:46;;;;;;;21.75;10.63;;;;;;;-3.08;47.90;96840.56;4990137;28;20199;-57
2022/01/13 09:06:13;;;;;;;20.50;10.52;;;;;;;-2.93;46.84;96842.66;4990825;28;20685;-60
2022/01/13 09:08:40;;;;;;;18.65;9.25;;;;;;;-2.63;46.81;96835.03;4990516;28;20209;-58
2022/01/13 09:11:07;;;;;;;20.80;9.23;;;;;;;-2.14;45.81;96826.59;4990860;28;20205;-58
2022/01/13 09:13:36;;;;;;;17.38;9.00;;;;;;;-2.06;45.11;96842.13;4989913;28;20261;-55
2022/01/13 09:16:12;;;;;;;32.00;13.85;;;;;;;-1.97;44.94;96838.78;4990016;28;20346;-59
2022/01/13 09:21:24;;;;;;;17.05;8.93;;;;;;;-1.10;43.14;96836.19;4990356;28;20286;-58
2022/01/13 09:23:52;;;;;;;19.15;9.25;;;;;;;-1.55;43.76;96824.00;4989995;28;20202;-57
2022/01/13 09:26:19;;;;;;;19.70;10.35;;;;;;;-0.87;43.06;96810.97;4990047;28;20628;-59
2022/01/13 09:28:45;;;;;;;19.88;9.60;;;;;;;-0.91;42.37;96793.38;4990051;28;20217;-59
2022/01/13 09:31:12;;;;;;;22.30;9.93;;;;;;;-0.74;42.40;96800.34;4990837;28;20702;-57
2022/01/13 09:33:39;;;;;;;22.55;10.88;;;;;;;-0.86;42.17;96792.00;4989729;28;20690;-59
2022/01/13 09:36:07;;;;;;;16.30;6.57;;;;;;;-1.35;42.59;96800.72;4990245;28;20206;-60
2022/01/13 09:38:35;;;;;;;23.05;10.73;;;;;;;-0.53;42.40;96794.06;4990359;28;20215;-59
2022/01/13 09:41:03;;;;;;;20.33;10.10;;;;;;;-0.46;41.27;96774.53;4990257;28;20260;-59
2022/01/13 09:43:30;;;;;;;25.15;11.57;;;;;;;-0.52;41.76;96789.72;4990279;28;20290;-59
2022/01/13 09:45:59;;;;;;;20.77;10.48;;;;;;;-0.16;41.25;96792.28;4990744;28;20186;-60
2022/01/13 09:48:28;;;;;;;27.08;13.02;;;;;;;-0.55;41.58;96790.03;4989675;28;20206;-60
2022/01/13 09:50:55;;;;;;;31.65;13.88;;;;;;;-0.26;41.54;96780.41;4990026;28;20233;-58
2022/01/13 09:53:22;;;;;;;20.77;10.90;;;;;;;-0.55;41.65;96779.72;4989569;28;20269;-57
2022/01/13 09:55:49;;;;;;;19.27;9.00;;;;;;;-0.89;41.89;96781.19;4989669;28;20195;-59
2022/01/13 09:58:16;;;;;;;21.27;10.88;;;;;;;-1.08;43.25;96762.25;4989689;28;20225;-59
2022/01/13 10:00:44;;;;;;;25.55;11.05;;;;;;;-0.14;42.00;96738.84;4989954;28;20220;-59
2022/01/13 10:03:18;;;;;;;23.83;11.48;;;;;;;0.47;41.06;96738.97;4989613;28;20674;-59
2022/01/13 10:05:50;;;;;;;20.70;9.70;;;;;;;0.28;40.71;96743.44;4989698;28;20324;-59
2022/01/13 10:08:20;;;;;;;24.73;11.75;;;;;;;-0.06;41.45;96751.84;4990030;28;20232;-58
2022/01/13 10:10:48;;;;;;;20.58;10.52;;;;;;;-0.31;40.96;96736.25;4990247;28;20673;-59
2022/01/13 10:13:28;;;;;;;20.45;11.10;;;;;;;-1.44;42.76;96744.19;4989654;28;20203;-59
2022/01/13 10:18:45;;;;;;;16.75;8.20;;;;;;;-1.62;43.69;96727.78;4989065;28;20768;-57
2022/01/13 10:21:18;;;;;;;22.92;11.43;;;;;;;-1.21;43.65;96730.06;4989815;28;20233;-60
2022/01/13 10:24:06;;;;;;;18.85;7.60;;;;;;;-1.89;44.15;96718.19;4989402;28;20233;-56
2022/01/13 10:26:36;;;;;;;18.00;8.95;;;;;;;-1.72;44.58;96720.09;4989662;28;20201;-58
2022/01/13 10:29:05;;;;;;;26.88;12.43;;;;;;;-1.43;44.39;96714.94;4989099;28;20276;-57
2022/01/13 10:31:48;;;;;;;26.08;12.18;;;;;;;-1.10;43.67;96702.44;4989787;28;20213;-57
2022/01/13 10:34:26;;;;;;;21.23;9.52;;;;;;;-1.80;43.90;96704.53;4989066;28;20706;-59
2022/01/13 10:37:00;;;;;;;27.25;11.00;;;;;;;-1.70;45.23;96701.97;4989225;28;20206;-57
2022/01/13 10:39:56;;;;;;;24.45;11.05;;;;;;;-0.93;43.90;96692.34;4989137;28;20257;-61
2022/01/13 10:45:20;;;;;;;23.10;11.25;;;;;;;-1.05;43.96;96683.97;4989686;28;20195;-59
2022/01/13 10:47:52;;;;;;;24.20;11.68;;;;;;;-0.48;42.97;96672.63;4988996;28;20244;-58
2022/01/13 10:50:20;;;;;;;25.10;11.00;;;;;;;0.22;41.86;96646.88;4989574;28;20216;-60
2022/01/13 10:52:51;;;;;;;26.92;12.10;;;;;;;0.82;41.34;96666.66;4991530;28;20198;-59
2022/01/13 10:55:22;;;;;;;22.52;10.50;;;;;;;0.16;41.53;96662.97;4993067;28;20294;-58
2022/01/13 10:58:09;;;;;;;17.45;8.50;;;;;;;0.08;41.48;96660.31;4992517;28;20321;-59
2022/01/13 11:00:36;;;;;;;31.70;13.93;;;;;;;0.37;41.67;96666.03;4993821;28;20191;-60
2022/01/13 11:03:14;;;;;;;24.77;11.93;;;;;;;-0.61;42.35;96683.25;4993452;28;20314;-61
2022/01/13 11:05:50;;;;;;;25.80;10.48;;;;;;;-0.30;41.82;96629.69;4993092;28;20208;-59
2022/01/13 11:08:31;;;;;;;20.42;11.23;;;;;;;0.46;41.01;96685.75;4992319;28;20290;-58
2022/01/13 11:11:01;;;;;;;28.15;11.80;;;;;;;0.48;40.82;96683.84;4993330;28;20218;-59
2022/01/13 11:13:33;;;;;;;22.58;11.70;;;;;;;0.60;41.01;96672.31;4992636;28;20308;-59
2022/01/13 11:15:59;;;;;;;21.75;11.32;;;;;;;0.33;41.10;96667.28;4992767;28;20238;-60
2022/01/13 11:18:30;;;;;;;26.48;11.82;;;;;;;0.76;40.58;96666.47;4992364;28;20222;-59
2022/01/13 11:20:58;;;;;;;21.13;11.00;;;;;;;0.89;39.94;96657.34;4992742;28;20195;-60
2022/01/13 11:23:25;;;;;;;20.83;11.05;;;;;;;0.43;40.37;96649.16;4992224;28;20264;-57
2022/01/13 11:25:55;;;;;;;21.38;9.98;;;;;;;0.08;40.65;96657.72;4992838;28;20206;-59
2022/01/13 11:28:23;;;;;;;21.42;11.10;;;;;;;-0.60;42.37;96668.63;4992146;28;20198;-57
2022/01/13 11:30:51;;;;;;;19.85;9.55;;;;;;;-0.62;42.43;96660.25;4993372;28;20206;-58
2022/01/13 11:33:20;;;;;;;49.85;19.48;;;;;;;0.12;41.88;96651.31;4992775;28;20225;-58
2022/01/13 11:35:55;;;;;;;27.48;12.48;;;;;;;-0.07;41.28;96648.88;4992049;28;20272;-58
2022/01/13 11:38:26;;;;;;;20.58;11.00;;;;;;;-0.11;41.59;96652.75;4992351;28;20209;-59
2022/01/13 11:41:05;;;;;;;18.83;10.25;;;;;;;-0.45;41.89;96651.72;4993098;28;20210;-60
2022/01/13 11:43:41;;;;;;;22.33;11.60;;;;;;;-0.15;41.60;96643.69;4992201;28;20201;-58
2022/01/13 11:46:19;;;;;;;21.50;11.27;;;;;;;0.21;41.36;96650.44;4992359;28;20213;-57
2022/01/13 11:49:02;;;;;;;22.73;11.02;;;;;;;0.49;40.77;96644.22;4991836;28;20230;-59
2022/01/13 11:51:44;;;;;;;22.00;11.82;;;;;;;0.74;39.79;96638.25;4992553;28;20187;-59
2022/01/13 11:54:24;;;;;;;21.05;11.57;;;;;;;0.71;39.56;96648.84;4991626;28;20206;-59
2022/01/13 11:57:35;;;;;;;21.45;10.65;;;;;;;1.12;38.71;96642.16;4992682;28;20194;-58
2022/01/13 12:00:01;;;;;;;23.17;11.57;;;;;;;1.47;38.12;96661.81;4992267;28;20218;-59
2022/01/13 12:02:43;;;;;;;19.63;9.60;;;;;;;1.22;37.87;96673.84;4991800;28;20250;-58
2022/01/13 12:05:17;;;;;;;20.05;11.00;;;;;;;1.36;38.35;96659.50;4992234;28;20273;-61
2022/01/13 12:07:45;;;;;;;75.03;25.58;;;;;;;3.18;36.52;96652.13;4991249;28;20198;-58